sensor_id;sensor_type;location;lat;lon;timestamp;pressure;altitude;pressure_sealevel;temperature;humidity
56142;BME280;42018;48.588;10.836;2022-07-19T00:02:06;97326.06;;;21.34;45.07
56142;BME280;42018;48.588;10.836;2022-07-19T00:04:52;97330.50;;;21.21;45.25
56142;BME280;42018;48.588;10.836;2022-07-19T00:07:37;97329.09;;;21.07;45.46
56142;BME280;42018;48.588;10.836;2022-07-19T00:10:23;97329.88;;;21.07;45.08
56142;BME280;42018;48.588;10.836;2022-07-19T00:13:09;97330.69;;;21.08;45.10
56142;BME280;42018;48.588;10.836;2022-07-19T00:15:54;97331.63;;;21.12;45.23
56142;BME280;42018;48.588;10.836;2022-07-19T00:18:40;97329.09;;;21.24;45.03
56142;BME280;42018;48.588;10.836;2022-07-19T00:21:25;97332.41;;;21.12;45.50
56142;BME280;42018;48.588;10.836;2022-07-19T00:24:10;97337.03;;;20.94;46.34
56142;BME280;42018;48.588;10.836;2022-07-19T00:26:56;97340.34;;;20.83;46.46
56142;BME280;42018;48.588;10.836;2022-07-19T00:29:41;97328.63;;;20.87;45.96
56142;BME280;42018;48.588;10.836;2022-07-19T00:32:26;97338.13;;;20.76;46.51
56142;BME280;42018;48.588;10.836;2022-07-19T00:35:12;97335.09;;;20.77;46.11
56142;BME280;42018;48.588;10.836;2022-07-19T00:38:06;97334.31;;;20.77;46.26
56142;BME280;42018;48.588;10.836;2022-07-19T00:40:51;97334.63;;;20.58;47.21
56142;BME280;42018;48.588;10.836;2022-07-19T00:43:40;97327.50;;;20.62;46.86
56142;BME280;42018;48.588;10.836;2022-07-19T00:46:26;97338.59;;;20.61;47.05
56142;BME280;42018;48.588;10.836;2022-07-19T00:49:11;97331.31;;;20.61;47.10
56142;BME280;42018;48.588;10.836;2022-07-19T00:51:57;97329.44;;;20.79;46.55
56142;BME280;42018;48.588;10.836;2022-07-19T00:54:44;97331.00;;;20.80;46.56
56142;BME280;42018;48.588;10.836;2022-07-19T00:57:33;97333.84;;;20.84;46.54
56142;BME280;42018;48.588;10.836;2022-07-19T01:00:19;97327.03;;;20.69;47.54
56142;BME280;42018;48.588;10.836;2022-07-19T01:03:06;97349.50;;;20.55;47.75
56142;BME280;42018;48.588;10.836;2022-07-19T01:05:53;97342.69;;;20.49;47.93
56142;BME280;42018;48.588;10.836;2022-07-19T01:08:38;97336.47;;;20.31;47.96
56142;BME280;42018;48.588;10.836;2022-07-19T01:11:24;97336.47;;;20.31;48.17
56142;BME280;42018;48.588;10.836;2022-07-19T01:14:09;97337.72;;;20.25;48.02
56142;BME280;42018;48.588;10.836;2022-07-19T01:16:55;97335.00;;;20.17;48.03
56142;BME280;42018;48.588;10.836;2022-07-19T01:19:44;97335.16;;;20.12;47.93
56142;BME280;42018;48.588;10.836;2022-07-19T01:22:29;97345.22;;;19.89;48.79
56142;BME280;42018;48.588;10.836;2022-07-19T01:25:15;97336.66;;;19.87;48.85
56142;BME280;42018;48.588;10.836;2022-07-19T01:28:04;97337.72;;;19.77;48.92
56142;BME280;42018;48.588;10.836;2022-07-19T01:30:49;97336.72;;;19.64;49.52
56142;BME280;42018;48.588;10.836;2022-07-19T01:33:43;97333.78;;;19.52;49.72
56142;BME280;42018;48.588;10.836;2022-07-19T01:36:29;97335.22;;;19.58;49.69
56142;BME280;42018;48.588;10.836;2022-07-19T01:39:15;97328.38;;;19.74;49.30
56142;BME280;42018;48.588;10.836;2022-07-19T01:42:01;97330.59;;;19.81;49.47
56142;BME280;42018;48.588;10.836;2022-07-19T01:44:47;97327.34;;;19.93;49.05
56142;BME280;42018;48.588;10.836;2022-07-19T01:47:32;97332.75;;;20.01;48.88
56142;BME280;42018;48.588;10.836;2022-07-19T01:50:18;97327.84;;;20.03;48.92
56142;BME280;42018;48.588;10.836;2022-07-19T01:53:03;97333.53;;;20.02;48.92
56142;BME280;42018;48.588;10.836;2022-07-19T01:55:49;97331.78;;;19.97;49.28
56142;BME280;42018;48.588;10.836;2022-07-19T01:58:34;97332.22;;;19.82;50.00
56142;BME280;42018;48.588;10.836;2022-07-19T02:01:19;97334.22;;;19.68;50.18
56142;BME280;42018;48.588;10.836;2022-07-19T02:04:05;97325.59;;;19.57;49.80
56142;BME280;42018;48.588;10.836;2022-07-19T02:06:50;97336.16;;;19.53;49.88
56142;BME280;42018;48.588;10.836;2022-07-19T02:09:35;97330.28;;;19.51;49.61
56142;BME280;42018;48.588;10.836;2022-07-19T02:12:21;97333.84;;;19.38;50.01
56142;BME280;42018;48.588;10.836;2022-07-19T02:15:07;97325.28;;;19.58;49.74
56142;BME280;42018;48.588;10.836;2022-07-19T02:17:53;97320.28;;;19.43;50.34
56142;BME280;42018;48.588;10.836;2022-07-19T02:20:38;97315.66;;;19.35;50.33
56142;BME280;42018;48.588;10.836;2022-07-19T02:23:24;97315.66;;;19.35;50.26
56142;BME280;42018;48.588;10.836;2022-07-19T02:26:09;97311.28;;;19.17;50.83
56142;BME280;42018;48.588;10.836;2022-07-19T02:28:54;97312.53;;;19.10;50.94
56142;BME280;42018;48.588;10.836;2022-07-19T02:31:40;97313.00;;;19.12;50.50
56142;BME280;42018;48.588;10.836;2022-07-19T02:34:25;97311.53;;;19.29;50.25
56142;BME280;42018;48.588;10.836;2022-07-19T02:37:10;97309.47;;;19.34;50.09
56142;BME280;42018;48.588;10.836;2022-07-19T02:39:56;97320.28;;;19.43;49.58
56142;BME280;42018;48.588;10.836;2022-07-19T02:42:41;97316.00;;;19.42;50.12
56142;BME280;42018;48.588;10.836;2022-07-19T02:45:27;97314.44;;;19.41;49.87
56142;BME280;42018;48.588;10.836;2022-07-19T02:48:12;97313.28;;;19.33;50.25
56142;BME280;42018;48.588;10.836;2022-07-19T02:50:57;97314.03;;;19.25;50.63
56142;BME280;42018;48.588;10.836;2022-07-19T02:53:43;97307.16;;;19.10;51.00
56142;BME280;42018;48.588;10.836;2022-07-19T02:56:28;97313.25;;;19.02;51.13
56142;BME280;42018;48.588;10.836;2022-07-19T02:59:13;97310.50;;;18.94;51.48
56142;BME280;42018;48.588;10.836;2022-07-19T03:01:59;97312.94;;;18.81;51.65
56142;BME280;42018;48.588;10.836;2022-07-19T03:04:44;97305.72;;;18.68;51.51
56142;BME280;42018;48.588;10.836;2022-07-19T03:07:30;97308.28;;;18.73;52.23
56142;BME280;42018;48.588;10.836;2022-07-19T03:10:16;97315.16;;;18.65;52.68
56142;BME280;42018;48.588;10.836;2022-07-19T03:13:01;97305.78;;;18.77;52.04
56142;BME280;42018;48.588;10.836;2022-07-19T03:15:46;97311.53;;;18.84;51.73
56142;BME280;42018;48.588;10.836;2022-07-19T03:18:32;97303.56;;;18.93;51.26
56142;BME280;42018;48.588;10.836;2022-07-19T03:21:18;97304.16;;;18.89;51.91
56142;BME280;42018;48.588;10.836;2022-07-19T03:24:03;97303.84;;;18.91;51.54
56142;BME280;42018;48.588;10.836;2022-07-19T03:26:49;97308.19;;;19.01;51.13
56142;BME280;42018;48.588;10.836;2022-07-19T03:29:34;97308.72;;;19.11;50.59
56142;BME280;42018;48.588;10.836;2022-07-19T03:32:19;97300.41;;;18.99;51.20
56142;BME280;42018;48.588;10.836;2022-07-19T03:35:05;97301.28;;;19.08;51.10
56142;BME280;42018;48.588;10.836;2022-07-19T03:37:51;97298.00;;;19.11;51.15
56142;BME280;42018;48.588;10.836;2022-07-19T03:40:36;97297.53;;;18.96;51.77
56142;BME280;42018;48.588;10.836;2022-07-19T03:43:22;97302.97;;;18.82;51.86
56142;BME280;42018;48.588;10.836;2022-07-19T03:46:08;97292.69;;;18.75;52.38
56142;BME280;42018;48.588;10.836;2022-07-19T03:48:54;97296.84;;;18.67;52.11
56142;BME280;42018;48.588;10.836;2022-07-19T03:51:39;97296.53;;;18.47;52.23
56142;BME280;42018;48.588;10.836;2022-07-19T03:54:25;97298.84;;;18.39;52.84
56142;BME280;42018;48.588;10.836;2022-07-19T03:57:10;97301.78;;;18.38;52.94
56142;BME280;42018;48.588;10.836;2022-07-19T03:59:56;97300.41;;;18.40;52.91
56142;BME280;42018;48.588;10.836;2022-07-19T04:02:41;97300.41;;;18.40;52.53
56142;BME280;42018;48.588;10.836;2022-07-19T04:05:27;97304.78;;;18.36;52.65
56142;BME280;42018;48.588;10.836;2022-07-19T04:08:12;97298.66;;;18.22;53.54
56142;BME280;42018;48.588;10.836;2022-07-19T04:10:57;97308.16;;;18.28;53.13
56142;BME280;42018;48.588;10.836;2022-07-19T04:13:43;97305.28;;;18.38;53.08
56142;BME280;42018;48.588;10.836;2022-07-19T04:16:28;97309.25;;;18.41;53.03
56142;BME280;42018;48.588;10.836;2022-07-19T04:19:14;97309.03;;;18.51;53.03
56142;BME280;42018;48.588;10.836;2022-07-19T04:21:59;97307.97;;;18.75;52.03
56142;BME280;42018;48.588;10.836;2022-07-19T04:24:44;97303.47;;;19.06;51.09
56142;BME280;42018;48.588;10.836;2022-07-19T04:27:30;97314.31;;;19.24;51.07
56142;BME280;42018;48.588;10.836;2022-07-19T04:30:15;97312.06;;;19.40;50.69
56142;BME280;42018;48.588;10.836;2022-07-19T04:33:01;97311.47;;;19.51;50.42
56142;BME280;42018;48.588;10.836;2022-07-19T04:35:46;97319.50;;;19.74;49.82
56142;BME280;42018;48.588;10.836;2022-07-19T04:38:32;97316.44;;;19.98;49.85
56142;BME280;42018;48.588;10.836;2022-07-19T04:41:17;97315.69;;;20.15;49.33
56142;BME280;42018;48.588;10.836;2022-07-19T04:44:03;97313.97;;;20.27;49.01
56142;BME280;42018;48.588;10.836;2022-07-19T04:46:48;97314.47;;;20.38;48.61
56142;BME280;42018;48.588;10.836;2022-07-19T04:49:33;97310.53;;;20.44;48.26
56142;BME280;42018;48.588;10.836;2022-07-19T04:52:19;97313.72;;;20.55;48.25
56142;BME280;42018;48.588;10.836;2022-07-19T04:55:05;97315.13;;;20.52;47.68
56142;BME280;42018;48.588;10.836;2022-07-19T04:57:50;97306.78;;;20.71;47.36
56142;BME280;42018;48.588;10.836;2022-07-19T05:00:35;97300.75;;;20.83;47.23
56142;BME280;42018;48.588;10.836;2022-07-19T05:03:21;97309.31;;;20.85;46.46
56142;BME280;42018;48.588;10.836;2022-07-19T05:06:06;97311.03;;;20.90;46.40
56142;BME280;42018;48.588;10.836;2022-07-19T05:08:52;97301.66;;;21.04;45.91
56142;BME280;42018;48.588;10.836;2022-07-19T05:11:38;97301.38;;;21.06;45.84
56142;BME280;42018;48.588;10.836;2022-07-19T05:14:23;97302.88;;;21.33;45.86
56142;BME280;42018;48.588;10.836;2022-07-19T05:17:08;97296.06;;;21.44;45.22
56142;BME280;42018;48.588;10.836;2022-07-19T05:19:54;97289.38;;;21.50;45.19
56142;BME280;42018;48.588;10.836;2022-07-19T05:22:39;97295.41;;;21.47;44.46
56142;BME280;42018;48.588;10.836;2022-07-19T05:25:25;97301.91;;;21.55;44.70
56142;BME280;42018;48.588;10.836;2022-07-19T05:28:10;97292.41;;;21.49;44.62
56142;BME280;42018;48.588;10.836;2022-07-19T05:30:55;97288.53;;;21.67;44.46
56142;BME280;42018;48.588;10.836;2022-07-19T05:33:41;97287.75;;;21.67;44.88
56142;BME280;42018;48.588;10.836;2022-07-19T05:36:27;97296.69;;;21.88;44.60
56142;BME280;42018;48.588;10.836;2022-07-19T05:39:12;97298.28;;;21.89;45.16
56142;BME280;42018;48.588;10.836;2022-07-19T05:41:58;97292.38;;;22.26;44.66
56142;BME280;42018;48.588;10.836;2022-07-19T05:44:43;97281.19;;;22.36;44.33
56142;BME280;42018;48.588;10.836;2022-07-19T05:47:29;97286.34;;;22.70;43.54
56142;BME280;42018;48.588;10.836;2022-07-19T05:50:14;97287.63;;;22.85;43.67
56142;BME280;42018;48.588;10.836;2022-07-19T05:53:00;97288.19;;;23.00;43.39
56142;BME280;42018;48.588;10.836;2022-07-19T05:55:45;97291.72;;;23.12;43.47
56142;BME280;42018;48.588;10.836;2022-07-19T05:58:31;97292.66;;;23.29;43.16
56142;BME280;42018;48.588;10.836;2022-07-19T06:01:16;97297.16;;;23.25;43.92
56142;BME280;42018;48.588;10.836;2022-07-19T06:04:05;97300.00;;;23.40;43.11
56142;BME280;42018;48.588;10.836;2022-07-19T06:06:50;97299.78;;;23.46;42.16
56142;BME280;42018;48.588;10.836;2022-07-19T06:09:36;97299.13;;;23.61;41.89
56142;BME280;42018;48.588;10.836;2022-07-19T06:12:21;97302.13;;;23.80;41.95
56142;BME280;42018;48.588;10.836;2022-07-19T06:15:07;97298.50;;;24.01;42.06
56142;BME280;42018;48.588;10.836;2022-07-19T06:17:52;97292.41;;;24.16;41.57
56142;BME280;42018;48.588;10.836;2022-07-19T06:20:38;97302.53;;;24.44;41.01
56142;BME280;42018;48.588;10.836;2022-07-19T06:23:23;97301.69;;;24.68;40.07
56142;BME280;42018;48.588;10.836;2022-07-19T06:26:10;97297.25;;;24.88;40.15
56142;BME280;42018;48.588;10.836;2022-07-19T06:28:56;97301.56;;;25.04;40.09
56142;BME280;42018;48.588;10.836;2022-07-19T06:31:41;97296.84;;;25.29;37.93
56142;BME280;42018;48.588;10.836;2022-07-19T06:34:26;97290.09;;;25.39;37.84
56142;BME280;42018;48.588;10.836;2022-07-19T06:37:12;97290.84;;;25.52;36.88
56142;BME280;42018;48.588;10.836;2022-07-19T06:39:57;97297.41;;;25.67;37.28
56142;BME280;42018;48.588;10.836;2022-07-19T06:42:43;97299.38;;;25.38;36.86
56142;BME280;42018;48.588;10.836;2022-07-19T06:45:28;97289.88;;;25.60;36.76
56142;BME280;42018;48.588;10.836;2022-07-19T06:48:13;97282.16;;;25.78;36.10
56142;BME280;42018;48.588;10.836;2022-07-19T06:50:59;97281.28;;;25.90;36.21
56142;BME280;42018;48.588;10.836;2022-07-19T06:53:45;97275.25;;;25.96;35.92
56142;BME280;42018;48.588;10.836;2022-07-19T06:56:30;97284.00;;;26.41;36.12
56142;BME280;42018;48.588;10.836;2022-07-19T06:59:15;97277.47;;;26.26;35.71
56142;BME280;42018;48.588;10.836;2022-07-19T07:02:01;97279.69;;;26.20;35.37
56142;BME280;42018;48.588;10.836;2022-07-19T07:04:47;97277.41;;;26.42;35.26
56142;BME280;42018;48.588;10.836;2022-07-19T07:07:32;97289.69;;;26.71;34.82
56142;BME280;42018;48.588;10.836;2022-07-19T07:10:18;97285.91;;;26.95;35.53
56142;BME280;42018;48.588;10.836;2022-07-19T07:13:03;97284.66;;;27.31;34.79
56142;BME280;42018;48.588;10.836;2022-07-19T07:15:49;97290.00;;;27.47;32.83
56142;BME280;42018;48.588;10.836;2022-07-19T07:18:34;97289.75;;;27.56;34.12
56142;BME280;42018;48.588;10.836;2022-07-19T07:21:19;97285.53;;;27.58;33.17
56142;BME280;42018;48.588;10.836;2022-07-19T07:24:05;97289.28;;;27.50;33.43
56142;BME280;42018;48.588;10.836;2022-07-19T07:26:51;97292.25;;;27.41;32.49
56142;BME280;42018;48.588;10.836;2022-07-19T07:29:36;97290.53;;;27.56;33.27
56142;BME280;42018;48.588;10.836;2022-07-19T07:32:22;97296.13;;;27.86;33.02
56142;BME280;42018;48.588;10.836;2022-07-19T07:35:07;97291.59;;;27.94;31.41
56142;BME280;42018;48.588;10.836;2022-07-19T07:37:53;97283.19;;;28.06;32.62
56142;BME280;42018;48.588;10.836;2022-07-19T07:40:38;97278.75;;;28.21;34.72
56142;BME280;42018;48.588;10.836;2022-07-19T07:43:24;97284.75;;;28.04;32.10
56142;BME280;42018;48.588;10.836;2022-07-19T07:46:09;97279.63;;;28.02;31.40
56142;BME280;42018;48.588;10.836;2022-07-19T07:48:55;97273.63;;;27.89;32.02
56142;BME280;42018;48.588;10.836;2022-07-19T07:51:40;97282.25;;;27.95;31.00
56142;BME280;42018;48.588;10.836;2022-07-19T07:54:26;97275.66;;;28.49;32.21
56142;BME280;42018;48.588;10.836;2022-07-19T07:57:11;97274.91;;;28.52;29.18
56142;BME280;42018;48.588;10.836;2022-07-19T07:59:56;97271.84;;;28.54;29.95
56142;BME280;42018;48.588;10.836;2022-07-19T08:02:43;97274.47;;;28.47;30.29
56142;BME280;42018;48.588;10.836;2022-07-19T08:05:29;97267.47;;;28.49;30.58
56142;BME280;42018;48.588;10.836;2022-07-19T08:08:16;97277.91;;;28.74;29.75
56142;BME280;42018;48.588;10.836;2022-07-19T08:11:02;97261.94;;;28.42;29.45
56142;BME280;42018;48.588;10.836;2022-07-19T08:13:48;97260.94;;;28.54;30.42
56142;BME280;42018;48.588;10.836;2022-07-19T08:16:34;97252.22;;;28.75;30.29
56142;BME280;42018;48.588;10.836;2022-07-19T08:19:19;97252.66;;;28.47;29.02
56142;BME280;42018;48.588;10.836;2022-07-19T08:22:04;97249.00;;;28.66;29.80
56142;BME280;42018;48.588;10.836;2022-07-19T08:24:50;97247.38;;;28.61;30.30
56142;BME280;42018;48.588;10.836;2022-07-19T08:27:36;97244.41;;;28.73;29.91
56142;BME280;42018;48.588;10.836;2022-07-19T08:30:21;97242.13;;;28.79;30.98
56142;BME280;42018;48.588;10.836;2022-07-19T08:33:06;97251.53;;;28.85;29.66
56142;BME280;42018;48.588;10.836;2022-07-19T08:35:53;97241.66;;;29.03;28.82
56142;BME280;42018;48.588;10.836;2022-07-19T08:38:39;97242.13;;;28.79;30.68
56142;BME280;42018;48.588;10.836;2022-07-19T08:41:25;97238.81;;;28.96;30.55
56142;BME280;42018;48.588;10.836;2022-07-19T08:44:11;97233.03;;;29.01;29.71
56142;BME280;42018;48.588;10.836;2022-07-19T08:46:58;97230.09;;;29.21;30.25
56142;BME280;42018;48.588;10.836;2022-07-19T08:49:44;97233.78;;;28.64;30.81
56142;BME280;42018;48.588;10.836;2022-07-19T08:52:32;97223.94;;;29.27;30.35
56142;BME280;42018;48.588;10.836;2022-07-19T08:55:18;97217.00;;;29.37;30.14
56142;BME280;42018;48.588;10.836;2022-07-19T08:58:03;97225.47;;;28.87;30.27
56142;BME280;42018;48.588;10.836;2022-07-19T09:00:49;97222.59;;;29.07;29.22
56142;BME280;42018;48.588;10.836;2022-07-19T09:03:35;97216.28;;;29.44;28.15
56142;BME280;42018;48.588;10.836;2022-07-19T09:06:20;97226.13;;;29.11;28.97
56142;BME280;42018;48.588;10.836;2022-07-19T09:09:06;97221.50;;;29.15;28.28
56142;BME280;42018;48.588;10.836;2022-07-19T09:11:53;97223.47;;;28.84;29.24
56142;BME280;42018;48.588;10.836;2022-07-19T09:14:38;97221.25;;;28.94;29.79
56142;BME280;42018;48.588;10.836;2022-07-19T09:17:28;97228.31;;;29.35;29.30
56142;BME280;42018;48.588;10.836;2022-07-19T09:20:26;97205.94;;;29.19;28.24
56142;BME280;42018;48.588;10.836;2022-07-19T09:23:12;97204.47;;;29.29;28.03
56142;BME280;42018;48.588;10.836;2022-07-19T09:26:03;97199.88;;;29.40;27.68
56142;BME280;42018;48.588;10.836;2022-07-19T09:28:49;97207.69;;;29.90;28.53
56142;BME280;42018;48.588;10.836;2022-07-19T09:31:34;97211.97;;;29.91;25.65
56142;BME280;42018;48.588;10.836;2022-07-19T09:34:30;97197.94;;;29.92;25.69
56142;BME280;42018;48.588;10.836;2022-07-19T09:37:21;97194.06;;;29.49;26.04
56142;BME280;42018;48.588;10.836;2022-07-19T09:40:08;97194.66;;;29.69;25.65
56142;BME280;42018;48.588;10.836;2022-07-19T09:42:53;97216.03;;;29.59;25.73
56142;BME280;42018;48.588;10.836;2022-07-19T09:45:39;97199.22;;;30.13;25.10
56142;BME280;42018;48.588;10.836;2022-07-19T09:48:42;97202.06;;;30.34;24.16
56142;BME280;42018;48.588;10.836;2022-07-19T09:51:27;97199.03;;;30.50;24.20
56142;BME280;42018;48.588;10.836;2022-07-19T09:54:17;97195.63;;;30.78;23.97
56142;BME280;42018;48.588;10.836;2022-07-19T09:57:03;97199.72;;;30.29;24.03
56142;BME280;42018;48.588;10.836;2022-07-19T09:59:50;97198.75;;;30.80;23.85
56142;BME280;42018;48.588;10.836;2022-07-19T10:02:42;97195.97;;;30.73;23.52
56142;BME280;42018;48.588;10.836;2022-07-19T10:05:28;97188.53;;;30.70;22.83
56142;BME280;42018;48.588;10.836;2022-07-19T10:08:14;97189.03;;;31.29;22.86
56142;BME280;42018;48.588;10.836;2022-07-19T10:10:59;97185.97;;;31.48;22.23
56142;BME280;42018;48.588;10.836;2022-07-19T10:13:44;97186.34;;;31.36;23.07
56142;BME280;42018;48.588;10.836;2022-07-19T10:16:48;97192.59;;;31.47;22.21
56142;BME280;42018;48.588;10.836;2022-07-19T10:19:39;97181.25;;;31.49;21.83
56142;BME280;42018;48.588;10.836;2022-07-19T10:22:26;97180.06;;;31.71;22.01
56142;BME280;42018;48.588;10.836;2022-07-19T10:25:15;97176.56;;;31.35;21.92
56142;BME280;42018;48.588;10.836;2022-07-19T10:28:02;97169.13;;;31.46;23.12
56142;BME280;42018;48.588;10.836;2022-07-19T10:30:48;97168.69;;;31.91;22.04
56142;BME280;42018;48.588;10.836;2022-07-19T10:33:35;97163.91;;;32.16;21.64
56142;BME280;42018;48.588;10.836;2022-07-19T10:36:36;97161.44;;;32.51;20.99
56142;BME280;42018;48.588;10.836;2022-07-19T10:42:22;97164.63;;;32.35;20.46
56142;BME280;42018;48.588;10.836;2022-07-19T10:45:11;97166.03;;;32.72;19.98
56142;BME280;42018;48.588;10.836;2022-07-19T10:50:51;97161.50;;;32.33;20.56
56142;BME280;42018;48.588;10.836;2022-07-19T10:53:53;97153.69;;;32.28;20.91
56142;BME280;42018;48.588;10.836;2022-07-19T10:56:43;97144.97;;;32.51;21.27
56142;BME280;42018;48.588;10.836;2022-07-19T10:59:41;97147.78;;;32.33;21.15
56142;BME280;42018;48.588;10.836;2022-07-19T11:02:27;97139.50;;;32.47;20.76
56142;BME280;42018;48.588;10.836;2022-07-19T11:08:07;97135.91;;;32.61;20.85
56142;BME280;42018;48.588;10.836;2022-07-19T11:11:02;97131.88;;;32.76;21.50
56142;BME280;42018;48.588;10.836;2022-07-19T11:13:55;97112.78;;;33.18;20.94
56142;BME280;42018;48.588;10.836;2022-07-19T11:16:40;97114.16;;;32.95;19.77
56142;BME280;42018;48.588;10.836;2022-07-19T11:19:26;97122.06;;;32.82;20.49
56142;BME280;42018;48.588;10.836;2022-07-19T11:22:12;97107.06;;;32.94;20.44
56142;BME280;42018;48.588;10.836;2022-07-19T11:24:57;97111.69;;;33.08;20.75
56142;BME280;42018;48.588;10.836;2022-07-19T11:27:44;97111.06;;;33.76;18.83
56142;BME280;42018;48.588;10.836;2022-07-19T11:30:32;97109.59;;;33.68;18.95
56142;BME280;42018;48.588;10.836;2022-07-19T11:33:19;97113.56;;;33.63;19.97
56142;BME280;42018;48.588;10.836;2022-07-19T11:36:05;97120.78;;;33.50;18.43
56142;BME280;42018;48.588;10.836;2022-07-19T11:38:54;97110.50;;;33.12;18.88
56142;BME280;42018;48.588;10.836;2022-07-19T11:41:43;97104.19;;;33.12;19.17
56142;BME280;42018;48.588;10.836;2022-07-19T11:44:29;97099.59;;;33.43;19.51
56142;BME280;42018;48.588;10.836;2022-07-19T11:47:14;97098.13;;;33.76;19.04
56142;BME280;42018;48.588;10.836;2022-07-19T11:50:07;97092.00;;;33.96;18.59
56142;BME280;42018;48.588;10.836;2022-07-19T11:52:58;97099.63;;;34.15;18.80
56142;BME280;42018;48.588;10.836;2022-07-19T11:55:43;97086.78;;;34.36;17.84
56142;BME280;42018;48.588;10.836;2022-07-19T11:58:29;97081.44;;;34.55;17.64
56142;BME280;42018;48.588;10.836;2022-07-19T12:01:23;97077.69;;;34.69;18.56
56142;BME280;42018;48.588;10.836;2022-07-19T12:04:11;97081.38;;;34.28;18.38
56142;BME280;42018;48.588;10.836;2022-07-19T12:06:59;97081.09;;;34.50;18.12
56142;BME280;42018;48.588;10.836;2022-07-19T12:09:44;97078.00;;;34.48;17.83
56142;BME280;42018;48.588;10.836;2022-07-19T12:12:40;97074.59;;;34.37;17.52
56142;BME280;42018;48.588;10.836;2022-07-19T12:15:26;97080.84;;;34.10;17.12
56142;BME280;42018;48.588;10.836;2022-07-19T12:27:07;97072.16;;;34.96;17.32
56142;BME280;42018;48.588;10.836;2022-07-19T12:29:55;97070.72;;;34.61;17.11
56142;BME280;42018;48.588;10.836;2022-07-19T12:32:41;97072.25;;;34.66;16.72
56142;BME280;42018;48.588;10.836;2022-07-19T12:35:28;97061.91;;;34.73;16.85
56142;BME280;42018;48.588;10.836;2022-07-19T12:38:14;97056.63;;;35.10;17.43
56142;BME280;42018;48.588;10.836;2022-07-19T12:41:08;97058.28;;;35.27;16.49
56142;BME280;42018;48.588;10.836;2022-07-19T12:43:53;97061.53;;;35.42;15.92
56142;BME280;42018;48.588;10.836;2022-07-19T12:46:39;97052.91;;;35.40;16.39
56142;BME280;42018;48.588;10.836;2022-07-19T12:49:24;97046.44;;;35.50;16.09
56142;BME280;42018;48.588;10.836;2022-07-19T12:52:10;97044.94;;;35.02;16.43
56142;BME280;42018;48.588;10.836;2022-07-19T12:54:55;97048.50;;;35.86;15.93
56142;BME280;42018;48.588;10.836;2022-07-19T12:57:41;97039.34;;;35.72;16.01
56142;BME280;42018;48.588;10.836;2022-07-19T13:00:28;97051.41;;;35.15;16.24
56142;BME280;42018;48.588;10.836;2022-07-19T13:03:14;97033.41;;;35.31;16.16
56142;BME280;42018;48.588;10.836;2022-07-19T13:05:59;97035.16;;;34.74;15.38
56142;BME280;42018;48.588;10.836;2022-07-19T13:08:45;97036.69;;;35.02;15.66
56142;BME280;42018;48.588;10.836;2022-07-19T13:11:30;97027.94;;;34.02;16.92
56142;BME280;42018;48.588;10.836;2022-07-19T13:14:15;97030.84;;;34.46;17.43
56142;BME280;42018;48.588;10.836;2022-07-19T13:17:02;97023.91;;;34.88;16.50
56142;BME280;42018;48.588;10.836;2022-07-19T13:19:47;97028.75;;;34.81;15.71
56142;BME280;42018;48.588;10.836;2022-07-19T13:22:33;97016.78;;;34.91;16.32
56142;BME280;42018;48.588;10.836;2022-07-19T13:25:19;97015.69;;;35.32;16.10
56142;BME280;42018;48.588;10.836;2022-07-19T13:28:04;97014.06;;;35.34;15.54
56142;BME280;42018;48.588;10.836;2022-07-19T13:30:50;97017.69;;;35.08;16.38
56142;BME280;42018;48.588;10.836;2022-07-19T13:33:36;97016.13;;;34.83;15.86
56142;BME280;42018;48.588;10.836;2022-07-19T13:36:21;97008.63;;;34.60;17.04
56142;BME280;42018;48.588;10.836;2022-07-19T13:39:07;97003.00;;;35.14;16.32
56142;BME280;42018;48.588;10.836;2022-07-19T13:41:52;96999.06;;;34.92;16.56
56142;BME280;42018;48.588;10.836;2022-07-19T13:44:38;96999.16;;;35.32;16.41
56142;BME280;42018;48.588;10.836;2022-07-19T13:47:23;96986.97;;;35.72;16.71
56142;BME280;42018;48.588;10.836;2022-07-19T13:50:09;96997.56;;;35.74;15.97
56142;BME280;42018;48.588;10.836;2022-07-19T13:52:54;96988.50;;;35.34;16.54
56142;BME280;42018;48.588;10.836;2022-07-19T13:55:40;96985.19;;;35.62;16.56
56142;BME280;42018;48.588;10.836;2022-07-19T13:58:26;96989.28;;;35.74;16.52
56142;BME280;42018;48.588;10.836;2022-07-19T14:01:11;96982.00;;;35.64;16.67
56142;BME280;42018;48.588;10.836;2022-07-19T14:03:57;96987.59;;;35.60;16.81
56142;BME280;42018;48.588;10.836;2022-07-19T14:06:42;96969.25;;;35.90;16.45
56142;BME280;42018;48.588;10.836;2022-07-19T14:09:28;96974.25;;;35.59;17.25
56142;BME280;42018;48.588;10.836;2022-07-19T14:12:13;96969.97;;;35.34;17.35
56142;BME280;42018;48.588;10.836;2022-07-19T14:14:58;96968.56;;;35.46;17.58
56142;BME280;42018;48.588;10.836;2022-07-19T14:17:44;96970.66;;;35.62;17.08
56142;BME280;42018;48.588;10.836;2022-07-19T14:20:29;96965.91;;;35.62;17.07
56142;BME280;42018;48.588;10.836;2022-07-19T14:23:15;96962.00;;;35.60;16.56
56142;BME280;42018;48.588;10.836;2022-07-19T14:26:00;96964.09;;;35.12;17.03
56142;BME280;42018;48.588;10.836;2022-07-19T14:28:46;96964.72;;;35.40;17.20
56142;BME280;42018;48.588;10.836;2022-07-19T14:31:31;96962.59;;;35.51;16.97
56142;BME280;42018;48.588;10.836;2022-07-19T14:34:16;96961.44;;;35.09;17.02
56142;BME280;42018;48.588;10.836;2022-07-19T14:37:02;96960.88;;;35.37;17.06
56142;BME280;42018;48.588;10.836;2022-07-19T14:39:47;96956.19;;;35.34;17.37
56142;BME280;42018;48.588;10.836;2022-07-19T14:42:33;96967.78;;;35.25;17.07
56142;BME280;42018;48.588;10.836;2022-07-19T14:45:18;96961.94;;;35.00;17.04
56142;BME280;42018;48.588;10.836;2022-07-19T14:48:04;96956.28;;;35.31;16.80